createdAt,value
2017-12-03T00:00:04.922Z,971
2017-12-03T00:15:07.526Z,970.65
2017-12-03T00:30:08.175Z,970.89
2017-12-03T00:45:05.057Z,970.7
2017-12-03T01:00:04.962Z,970.65
2017-12-03T01:15:04.900Z,971
2017-12-03T01:30:05.002Z,970.73
2017-12-03T01:45:05.425Z,970.62
2017-12-03T02:00:07.786Z,970.86
2017-12-03T02:15:08.549Z,971.08
2017-12-03T02:30:05.548Z,971.56
2017-12-03T02:45:04.666Z,971.61
2017-12-03T03:00:11.256Z,971.83
2017-12-03T03:15:04.855Z,971.94
2017-12-03T03:30:08.038Z,965.01
2017-12-03T03:45:12.534Z,972.5
2017-12-03T04:00:04.547Z,972.02
2017-12-03T04:15:04.977Z,972.34
2017-12-03T04:30:04.757Z,972.55
2017-12-03T04:45:05.417Z,972.52
2017-12-03T05:00:05.504Z,972.9
2017-12-03T05:15:04.429Z,965.46
2017-12-03T05:30:04.800Z,965.54
2017-12-03T05:45:05.384Z,972.95
2017-12-03T06:00:11.815Z,972.98
2017-12-03T06:15:08.582Z,973.38
2017-12-03T06:30:06.237Z,973.27
2017-12-03T06:45:04.760Z,973.22
2017-12-03T07:00:06.324Z,973.11
2017-12-03T07:15:08.349Z,973.38
2017-12-03T07:30:05.098Z,973.76
2017-12-03T07:45:05.573Z,973.76
2017-12-03T08:00:05.049Z,973.41
2017-12-03T08:15:05.171Z,973.35
2017-12-03T08:30:04.919Z,973.27
2017-12-03T08:45:06.332Z,973.25
2017-12-03T09:00:07.903Z,973.27
2017-12-03T09:15:05.516Z,972.79
2017-12-03T09:30:08.399Z,972.04
2017-12-03T09:45:05.259Z,972.07
2017-12-03T10:00:05.910Z,972.39
2017-12-03T10:15:06.022Z,972.42
2017-12-03T10:30:04.991Z,972.82
2017-12-03T10:45:04.467Z,972.18
2017-12-03T11:00:04.549Z,972.36
2017-12-03T11:15:04.971Z,971.77
2017-12-03T11:30:05.907Z,971.29
2017-12-03T11:45:06.311Z,970.94
2017-12-03T12:00:04.956Z,970.68
2017-12-03T12:15:07.353Z,970.81
2017-12-03T12:30:05.993Z,970.49
2017-12-03T12:45:09.375Z,970.03
2017-12-03T13:00:04.837Z,970.11
2017-12-03T13:15:04.774Z,969.82
2017-12-03T13:30:04.330Z,970.28
2017-12-03T13:45:07.740Z,970.86
2017-12-03T14:00:05.143Z,971.08
2017-12-03T14:15:05.028Z,971.19
2017-12-03T14:30:04.575Z,971.43
2017-12-03T14:45:04.954Z,971.83
2017-12-03T15:00:04.796Z,972.04
2017-12-03T15:15:05.283Z,971.88
2017-12-03T15:30:04.366Z,972.04
2017-12-03T15:45:07.480Z,972.15
2017-12-03T16:00:04.802Z,972.52
2017-12-03T16:15:04.657Z,972.74
2017-12-03T16:30:05.390Z,972.82
2017-12-03T16:45:04.853Z,972.66
2017-12-03T17:00:05.234Z,972.95
2017-12-03T17:15:05.858Z,972.82
2017-12-03T17:30:05.199Z,973.25
2017-12-03T17:47:15.007Z,973.38
2017-12-03T18:00:04.477Z,973.35
2017-12-03T18:15:06.074Z,973.92
2017-12-03T18:30:05.281Z,973.46
2017-12-03T18:45:05.363Z,973.76
2017-12-03T19:00:11.906Z,973.94
2017-12-03T19:15:07.431Z,974.43
2017-12-03T19:30:06.483Z,974.16
2017-12-03T19:45:05.775Z,974.1
2017-12-03T20:00:04.640Z,974.1
2017-12-03T20:15:05.316Z,974.32
2017-12-03T20:30:04.813Z,974.77
2017-12-03T20:45:05.189Z,974.77
2017-12-03T21:00:05.297Z,974.88
2017-12-03T21:15:05.234Z,974.91
2017-12-03T21:30:07.845Z,975.15
2017-12-03T21:45:06.548Z,975.04
2017-12-03T22:00:05.764Z,975.42
2017-12-03T22:15:07.907Z,975.58
2017-12-03T22:30:05.638Z,976.06
2017-12-03T22:45:07.766Z,976.17
2017-12-03T23:00:04.765Z,975.79
2017-12-03T23:15:06.660Z,976.51
2017-12-03T23:30:05.529Z,976.65
2017-12-03T23:45:07.595Z,976.51
